sensor_id;sensor_type;location;lat;lon;timestamp;temperature;humidity
40023;DHT22;25713;-35.352;149.036;2023-02-03T00:01:42;16.60;62.50
40023;DHT22;25713;-35.352;149.036;2023-02-03T00:04:12;16.50;63.80
40023;DHT22;25713;-35.352;149.036;2023-02-03T00:06:43;16.50;62.70
40023;DHT22;25713;-35.352;149.036;2023-02-03T00:09:13;16.50;62.90
40023;DHT22;25713;-35.352;149.036;2023-02-03T00:11:43;16.70;64.20
40023;DHT22;25713;-35.352;149.036;2023-02-03T00:14:12;16.60;62.80
40023;DHT22;25713;-35.352;149.036;2023-02-03T00:16:42;16.70;63.70
40023;DHT22;25713;-35.352;149.036;2023-02-03T00:19:11;16.70;63.70
40023;DHT22;25713;-35.352;149.036;2023-02-03T00:21:42;16.60;60.80
40023;DHT22;25713;-35.352;149.036;2023-02-03T00:24:12;16.60;64.00
40023;DHT22;25713;-35.352;149.036;2023-02-03T00:26:44;16.80;63.80
40023;DHT22;25713;-35.352;149.036;2023-02-03T00:29:12;16.80;63.10
40023;DHT22;25713;-35.352;149.036;2023-02-03T00:31:42;16.80;63.00
40023;DHT22;25713;-35.352;149.036;2023-02-03T00:34:11;16.70;62.90
40023;DHT22;25713;-35.352;149.036;2023-02-03T00:36:43;16.80;63.30
40023;DHT22;25713;-35.352;149.036;2023-02-03T00:39:13;16.70;62.30
40023;DHT22;25713;-35.352;149.036;2023-02-03T00:41:43;16.70;64.10
40023;DHT22;25713;-35.352;149.036;2023-02-03T00:44:13;16.70;64.30
40023;DHT22;25713;-35.352;149.036;2023-02-03T00:46:42;16.70;63.50
40023;DHT22;25713;-35.352;149.036;2023-02-03T00:49:12;16.80;61.30
40023;DHT22;25713;-35.352;149.036;2023-02-03T00:51:43;16.70;62.80
40023;DHT22;25713;-35.352;149.036;2023-02-03T00:54:13;16.90;64.20
40023;DHT22;25713;-35.352;149.036;2023-02-03T00:56:43;16.80;62.80
40023;DHT22;25713;-35.352;149.036;2023-02-03T00:59:14;16.90;62.00
40023;DHT22;25713;-35.352;149.036;2023-02-03T01:01:43;16.70;62.60
40023;DHT22;25713;-35.352;149.036;2023-02-03T01:04:13;16.60;61.80
40023;DHT22;25713;-35.352;149.036;2023-02-03T01:06:44;16.60;64.00
40023;DHT22;25713;-35.352;149.036;2023-02-03T01:09:17;16.70;62.40
40023;DHT22;25713;-35.352;149.036;2023-02-03T01:11:46;16.80;62.90
40023;DHT22;25713;-35.352;149.036;2023-02-03T01:14:16;16.90;60.90
40023;DHT22;25713;-35.352;149.036;2023-02-03T01:16:45;17.00;60.90
40023;DHT22;25713;-35.352;149.036;2023-02-03T01:19:15;16.90;61.00
40023;DHT22;25713;-35.352;149.036;2023-02-03T01:21:46;16.90;59.60
40023;DHT22;25713;-35.352;149.036;2023-02-03T01:24:16;16.90;61.40
40023;DHT22;25713;-35.352;149.036;2023-02-03T01:26:49;17.10;59.60
40023;DHT22;25713;-35.352;149.036;2023-02-03T01:29:18;17.10;60.00
40023;DHT22;25713;-35.352;149.036;2023-02-03T01:31:51;17.00;60.00
40023;DHT22;25713;-35.352;149.036;2023-02-03T01:34:20;17.10;60.30
40023;DHT22;25713;-35.352;149.036;2023-02-03T01:36:52;17.20;59.30
40023;DHT22;25713;-35.352;149.036;2023-02-03T01:39:21;17.30;59.50
40023;DHT22;25713;-35.352;149.036;2023-02-03T01:41:50;17.10;60.20
40023;DHT22;25713;-35.352;149.036;2023-02-03T01:44:40;17.10;59.80
40023;DHT22;25713;-35.352;149.036;2023-02-03T01:47:23;17.00;60.50
40023;DHT22;25713;-35.352;149.036;2023-02-03T01:50:00;17.20;59.90
40023;DHT22;25713;-35.352;149.036;2023-02-03T01:52:32;17.20;57.80
40023;DHT22;25713;-35.352;149.036;2023-02-03T01:55:06;17.20;58.10
40023;DHT22;25713;-35.352;149.036;2023-02-03T01:57:40;17.20;60.10
40023;DHT22;25713;-35.352;149.036;2023-02-03T02:00:12;17.20;59.80
40023;DHT22;25713;-35.352;149.036;2023-02-03T02:02:45;17.20;59.00
40023;DHT22;25713;-35.352;149.036;2023-02-03T02:05:20;17.20;60.40
40023;DHT22;25713;-35.352;149.036;2023-02-03T02:07:55;17.10;59.30
40023;DHT22;25713;-35.352;149.036;2023-02-03T02:10:26;17.30;60.60
40023;DHT22;25713;-35.352;149.036;2023-02-03T02:12:57;17.20;60.20
40023;DHT22;25713;-35.352;149.036;2023-02-03T02:15:34;17.20;58.50
40023;DHT22;25713;-35.352;149.036;2023-02-03T02:21:23;17.40;58.70
40023;DHT22;25713;-35.352;149.036;2023-02-03T02:27:14;17.50;57.80
40023;DHT22;25713;-35.352;149.036;2023-02-03T02:32:57;17.40;57.50
40023;DHT22;25713;-35.352;149.036;2023-02-03T02:35:43;17.50;58.10
40023;DHT22;25713;-35.352;149.036;2023-02-03T02:38:19;17.60;56.80
40023;DHT22;25713;-35.352;149.036;2023-02-03T02:40:53;17.70;57.40
40023;DHT22;25713;-35.352;149.036;2023-02-03T02:43:27;17.60;57.00
40023;DHT22;25713;-35.352;149.036;2023-02-03T02:46:04;17.60;57.30
40023;DHT22;25713;-35.352;149.036;2023-02-03T02:48:40;17.60;56.50
40023;DHT22;25713;-35.352;149.036;2023-02-03T02:51:14;17.70;55.40
40023;DHT22;25713;-35.352;149.036;2023-02-03T02:53:48;17.70;57.20
40023;DHT22;25713;-35.352;149.036;2023-02-03T02:56:19;17.80;55.90
40023;DHT22;25713;-35.352;149.036;2023-02-03T02:58:50;17.70;57.60
40023;DHT22;25713;-35.352;149.036;2023-02-03T03:01:21;17.80;56.80
40023;DHT22;25713;-35.352;149.036;2023-02-03T03:03:53;17.80;56.30
40023;DHT22;25713;-35.352;149.036;2023-02-03T03:06:26;17.80;57.00
40023;DHT22;25713;-35.352;149.036;2023-02-03T03:08:59;17.80;57.00
40023;DHT22;25713;-35.352;149.036;2023-02-03T03:11:34;17.80;56.60
40023;DHT22;25713;-35.352;149.036;2023-02-03T03:14:06;17.90;56.70
40023;DHT22;25713;-35.352;149.036;2023-02-03T03:16:38;18.00;57.40
40023;DHT22;25713;-35.352;149.036;2023-02-03T03:19:16;17.90;56.00
40023;DHT22;25713;-35.352;149.036;2023-02-03T03:21:48;17.90;56.00
40023;DHT22;25713;-35.352;149.036;2023-02-03T03:24:21;18.00;57.10
40023;DHT22;25713;-35.352;149.036;2023-02-03T03:26:54;18.00;56.20
40023;DHT22;25713;-35.352;149.036;2023-02-03T03:29:28;17.90;56.00
40023;DHT22;25713;-35.352;149.036;2023-02-03T03:31:58;17.90;56.00
40023;DHT22;25713;-35.352;149.036;2023-02-03T03:34:30;17.90;57.00
40023;DHT22;25713;-35.352;149.036;2023-02-03T03:37:04;17.80;56.30
40023;DHT22;25713;-35.352;149.036;2023-02-03T03:39:39;17.80;56.70
40023;DHT22;25713;-35.352;149.036;2023-02-03T03:42:19;17.90;56.40
40023;DHT22;25713;-35.352;149.036;2023-02-03T03:44:53;17.90;55.80
40023;DHT22;25713;-35.352;149.036;2023-02-03T03:47:28;17.90;55.20
40023;DHT22;25713;-35.352;149.036;2023-02-03T03:50:02;17.80;55.80
40023;DHT22;25713;-35.352;149.036;2023-02-03T03:52:35;17.70;56.80
40023;DHT22;25713;-35.352;149.036;2023-02-03T03:55:07;17.60;57.00
40023;DHT22;25713;-35.352;149.036;2023-02-03T03:57:41;17.70;56.20
40023;DHT22;25713;-35.352;149.036;2023-02-03T04:00:14;17.80;56.30
40023;DHT22;25713;-35.352;149.036;2023-02-03T04:02:47;17.90;56.00
40023;DHT22;25713;-35.352;149.036;2023-02-03T04:05:21;17.90;56.10
40023;DHT22;25713;-35.352;149.036;2023-02-03T04:07:51;17.90;55.40
40023;DHT22;25713;-35.352;149.036;2023-02-03T04:10:28;17.90;55.00
40023;DHT22;25713;-35.352;149.036;2023-02-03T04:12:58;17.80;55.80
40023;DHT22;25713;-35.352;149.036;2023-02-03T04:15:28;17.80;54.70
40023;DHT22;25713;-35.352;149.036;2023-02-03T04:17:57;17.50;55.70
40023;DHT22;25713;-35.352;149.036;2023-02-03T04:20:29;17.40;55.90
40023;DHT22;25713;-35.352;149.036;2023-02-03T04:22:59;17.50;58.30
40023;DHT22;25713;-35.352;149.036;2023-02-03T04:25:28;17.70;57.30
40023;DHT22;25713;-35.352;149.036;2023-02-03T04:27:58;17.70;56.90
40023;DHT22;25713;-35.352;149.036;2023-02-03T04:30:27;17.80;56.90
40023;DHT22;25713;-35.352;149.036;2023-02-03T04:32:57;17.80;54.60
40023;DHT22;25713;-35.352;149.036;2023-02-03T04:35:28;17.70;54.70
40023;DHT22;25713;-35.352;149.036;2023-02-03T04:37:58;17.70;54.60
40023;DHT22;25713;-35.352;149.036;2023-02-03T04:40:27;17.60;54.40
40023;DHT22;25713;-35.352;149.036;2023-02-03T04:42:57;17.70;57.00
40023;DHT22;25713;-35.352;149.036;2023-02-03T04:45:26;17.60;56.00
40023;DHT22;25713;-35.352;149.036;2023-02-03T04:47:55;17.60;57.20
40023;DHT22;25713;-35.352;149.036;2023-02-03T04:50:27;17.60;55.20
40023;DHT22;25713;-35.352;149.036;2023-02-03T04:52:56;17.60;56.20
40023;DHT22;25713;-35.352;149.036;2023-02-03T04:55:26;17.60;58.00
40023;DHT22;25713;-35.352;149.036;2023-02-03T04:57:56;17.60;57.50
40023;DHT22;25713;-35.352;149.036;2023-02-03T05:00:26;17.60;57.90
40023;DHT22;25713;-35.352;149.036;2023-02-03T05:02:56;17.70;57.60
40023;DHT22;25713;-35.352;149.036;2023-02-03T05:05:28;17.60;54.80
40023;DHT22;25713;-35.352;149.036;2023-02-03T05:07:57;17.60;57.40
40023;DHT22;25713;-35.352;149.036;2023-02-03T05:10:26;17.60;57.60
40023;DHT22;25713;-35.352;149.036;2023-02-03T05:12:56;17.50;56.00
40023;DHT22;25713;-35.352;149.036;2023-02-03T05:15:25;17.60;57.40
40023;DHT22;25713;-35.352;149.036;2023-02-03T05:17:55;17.60;56.10
40023;DHT22;25713;-35.352;149.036;2023-02-03T05:20:27;17.60;56.60
40023;DHT22;25713;-35.352;149.036;2023-02-03T05:22:57;17.50;56.60
40023;DHT22;25713;-35.352;149.036;2023-02-03T05:25:27;17.60;58.70
40023;DHT22;25713;-35.352;149.036;2023-02-03T05:27:56;17.70;56.20
40023;DHT22;25713;-35.352;149.036;2023-02-03T05:30:26;17.70;56.30
40023;DHT22;25713;-35.352;149.036;2023-02-03T05:32:55;17.70;57.00
40023;DHT22;25713;-35.352;149.036;2023-02-03T05:35:26;17.70;57.10
40023;DHT22;25713;-35.352;149.036;2023-02-03T05:37:56;17.70;57.50
40023;DHT22;25713;-35.352;149.036;2023-02-03T05:40:26;17.70;57.20
40023;DHT22;25713;-35.352;149.036;2023-02-03T05:42:55;17.80;55.20
40023;DHT22;25713;-35.352;149.036;2023-02-03T05:45:25;17.80;56.50
40023;DHT22;25713;-35.352;149.036;2023-02-03T05:47:54;17.70;55.80
40023;DHT22;25713;-35.352;149.036;2023-02-03T05:50:24;17.80;55.60
40023;DHT22;25713;-35.352;149.036;2023-02-03T05:52:55;17.80;56.50
40023;DHT22;25713;-35.352;149.036;2023-02-03T05:55:24;17.90;56.10
40023;DHT22;25713;-35.352;149.036;2023-02-03T05:57:54;17.90;55.20
40023;DHT22;25713;-35.352;149.036;2023-02-03T06:00:24;17.90;55.40
40023;DHT22;25713;-35.352;149.036;2023-02-03T06:02:54;18.00;56.50
40023;DHT22;25713;-35.352;149.036;2023-02-03T06:05:25;17.90;53.60
40023;DHT22;25713;-35.352;149.036;2023-02-03T06:07:56;17.80;55.70
40023;DHT22;25713;-35.352;149.036;2023-02-03T06:10:26;17.80;54.60
40023;DHT22;25713;-35.352;149.036;2023-02-03T06:12:56;17.70;54.40
40023;DHT22;25713;-35.352;149.036;2023-02-03T06:15:25;17.70;56.00
40023;DHT22;25713;-35.352;149.036;2023-02-03T06:17:54;17.80;56.50
40023;DHT22;25713;-35.352;149.036;2023-02-03T06:20:24;17.90;55.80
40023;DHT22;25713;-35.352;149.036;2023-02-03T06:22:55;17.90;54.20
40023;DHT22;25713;-35.352;149.036;2023-02-03T06:25:25;17.80;55.80
40023;DHT22;25713;-35.352;149.036;2023-02-03T06:27:54;17.90;56.50
40023;DHT22;25713;-35.352;149.036;2023-02-03T06:30:23;18.00;56.10
40023;DHT22;25713;-35.352;149.036;2023-02-03T06:32:53;18.00;54.60
40023;DHT22;25713;-35.352;149.036;2023-02-03T06:35:22;17.90;55.60
40023;DHT22;25713;-35.352;149.036;2023-02-03T06:37:52;17.90;55.20
40023;DHT22;25713;-35.352;149.036;2023-02-03T06:40:23;18.00;55.10
40023;DHT22;25713;-35.352;149.036;2023-02-03T06:42:53;18.00;54.90
40023;DHT22;25713;-35.352;149.036;2023-02-03T06:45:22;18.10;54.90
40023;DHT22;25713;-35.352;149.036;2023-02-03T06:47:52;18.10;54.50
40023;DHT22;25713;-35.352;149.036;2023-02-03T06:50:21;18.00;53.50
40023;DHT22;25713;-35.352;149.036;2023-02-03T06:52:50;17.90;54.80
40023;DHT22;25713;-35.352;149.036;2023-02-03T06:55:22;17.90;55.40
40023;DHT22;25713;-35.352;149.036;2023-02-03T06:57:52;18.00;55.10
40023;DHT22;25713;-35.352;149.036;2023-02-03T07:00:21;18.00;55.00
40023;DHT22;25713;-35.352;149.036;2023-02-03T07:02:54;18.10;54.90
40023;DHT22;25713;-35.352;149.036;2023-02-03T07:05:24;18.00;55.40
40023;DHT22;25713;-35.352;149.036;2023-02-03T07:07:54;18.10;54.90
40023;DHT22;25713;-35.352;149.036;2023-02-03T07:10:25;18.10;54.00
40023;DHT22;25713;-35.352;149.036;2023-02-03T07:12:55;17.90;55.10
40023;DHT22;25713;-35.352;149.036;2023-02-03T07:15:29;17.90;56.40
40023;DHT22;25713;-35.352;149.036;2023-02-03T07:17:58;17.90;56.40
40023;DHT22;25713;-35.352;149.036;2023-02-03T07:20:28;18.00;55.70
40023;DHT22;25713;-35.352;149.036;2023-02-03T07:22:58;18.00;54.10
40023;DHT22;25713;-35.352;149.036;2023-02-03T07:25:29;18.00;55.10
40023;DHT22;25713;-35.352;149.036;2023-02-03T07:27:59;18.00;54.80
40023;DHT22;25713;-35.352;149.036;2023-02-03T07:30:28;17.90;53.60
40023;DHT22;25713;-35.352;149.036;2023-02-03T07:32:58;17.90;56.50
40023;DHT22;25713;-35.352;149.036;2023-02-03T07:35:27;17.90;55.00
40023;DHT22;25713;-35.352;149.036;2023-02-03T07:37:57;17.80;56.80
40023;DHT22;25713;-35.352;149.036;2023-02-03T07:40:28;17.80;58.70
40023;DHT22;25713;-35.352;149.036;2023-02-03T07:42:57;17.90;56.30
40023;DHT22;25713;-35.352;149.036;2023-02-03T07:45:27;17.80;57.50
40023;DHT22;25713;-35.352;149.036;2023-02-03T07:47:56;17.80;58.30
40023;DHT22;25713;-35.352;149.036;2023-02-03T07:50:26;17.80;58.10
40023;DHT22;25713;-35.352;149.036;2023-02-03T07:52:55;17.90;57.90
40023;DHT22;25713;-35.352;149.036;2023-02-03T07:55:25;17.90;59.00
40023;DHT22;25713;-35.352;149.036;2023-02-03T07:57:56;17.90;57.50
40023;DHT22;25713;-35.352;149.036;2023-02-03T08:00:26;17.90;58.10
40023;DHT22;25713;-35.352;149.036;2023-02-03T08:02:55;17.80;58.00
40023;DHT22;25713;-35.352;149.036;2023-02-03T08:05:25;17.70;58.60
40023;DHT22;25713;-35.352;149.036;2023-02-03T08:07:55;17.70;58.70
40023;DHT22;25713;-35.352;149.036;2023-02-03T08:10:24;17.70;58.50
40023;DHT22;25713;-35.352;149.036;2023-02-03T08:12:55;17.80;59.90
40023;DHT22;25713;-35.352;149.036;2023-02-03T08:15:25;17.80;59.80
40023;DHT22;25713;-35.352;149.036;2023-02-03T08:17:54;17.80;59.90
40023;DHT22;25713;-35.352;149.036;2023-02-03T08:20:24;17.80;58.10
40023;DHT22;25713;-35.352;149.036;2023-02-03T08:22:53;17.80;61.60
40023;DHT22;25713;-35.352;149.036;2023-02-03T08:25:22;17.70;59.00
40023;DHT22;25713;-35.352;149.036;2023-02-03T08:27:53;17.80;59.00
40023;DHT22;25713;-35.352;149.036;2023-02-03T08:30:24;17.80;57.80
40023;DHT22;25713;-35.352;149.036;2023-02-03T08:32:54;17.80;59.00
40023;DHT22;25713;-35.352;149.036;2023-02-03T08:35:23;17.90;59.40
40023;DHT22;25713;-35.352;149.036;2023-02-03T08:37:53;17.90;57.10
40023;DHT22;25713;-35.352;149.036;2023-02-03T08:40:22;17.90;57.40
40023;DHT22;25713;-35.352;149.036;2023-02-03T08:42:52;17.80;59.30
40023;DHT22;25713;-35.352;149.036;2023-02-03T08:45:23;17.80;57.10
40023;DHT22;25713;-35.352;149.036;2023-02-03T08:47:53;17.80;57.20
40023;DHT22;25713;-35.352;149.036;2023-02-03T08:50:22;17.80;58.30
40023;DHT22;25713;-35.352;149.036;2023-02-03T08:52:52;17.80;59.10
40023;DHT22;25713;-35.352;149.036;2023-02-03T08:55:21;17.70;59.70
40023;DHT22;25713;-35.352;149.036;2023-02-03T08:57:50;17.80;59.80
40023;DHT22;25713;-35.352;149.036;2023-02-03T09:00:23;17.80;59.60
40023;DHT22;25713;-35.352;149.036;2023-02-03T09:02:52;17.80;56.70
40023;DHT22;25713;-35.352;149.036;2023-02-03T09:05:22;17.80;59.20
40023;DHT22;25713;-35.352;149.036;2023-02-03T09:07:51;17.80;58.90
40023;DHT22;25713;-35.352;149.036;2023-02-03T09:10:21;17.90;60.50
40023;DHT22;25713;-35.352;149.036;2023-02-03T09:12:50;17.90;59.90
40023;DHT22;25713;-35.352;149.036;2023-02-03T09:15:19;17.90;59.70
40023;DHT22;25713;-35.352;149.036;2023-02-03T09:17:51;17.90;59.30
40023;DHT22;25713;-35.352;149.036;2023-02-03T09:20:20;18.00;59.50
40023;DHT22;25713;-35.352;149.036;2023-02-03T09:22:50;18.00;58.70
40023;DHT22;25713;-35.352;149.036;2023-02-03T09:25:19;18.00;58.80
40023;DHT22;25713;-35.352;149.036;2023-02-03T09:27:49;18.00;58.80
40023;DHT22;25713;-35.352;149.036;2023-02-03T09:30:18;18.00;58.80
40023;DHT22;25713;-35.352;149.036;2023-02-03T09:32:50;18.10;59.10
40023;DHT22;25713;-35.352;149.036;2023-02-03T09:35:20;18.10;58.90
40023;DHT22;25713;-35.352;149.036;2023-02-03T09:37:49;18.00;60.20
40023;DHT22;25713;-35.352;149.036;2023-02-03T09:40:22;18.10;59.10
40023;DHT22;25713;-35.352;149.036;2023-02-03T09:43:11;18.10;59.10
40023;DHT22;25713;-35.352;149.036;2023-02-03T09:45:42;18.00;59.50
40023;DHT22;25713;-35.352;149.036;2023-02-03T09:48:15;18.10;59.70
40023;DHT22;25713;-35.352;149.036;2023-02-03T09:50:46;18.10;59.70
40023;DHT22;25713;-35.352;149.036;2023-02-03T09:53:24;18.00;61.30
40023;DHT22;25713;-35.352;149.036;2023-02-03T09:55:55;18.00;60.70
40023;DHT22;25713;-35.352;149.036;2023-02-03T09:58:27;18.00;59.90
40023;DHT22;25713;-35.352;149.036;2023-02-03T10:01:01;18.00;60.40
40023;DHT22;25713;-35.352;149.036;2023-02-03T10:03:37;18.00;61.10
40023;DHT22;25713;-35.352;149.036;2023-02-03T10:06:17;18.00;61.40
40023;DHT22;25713;-35.352;149.036;2023-02-03T10:09:03;18.00;61.50
40023;DHT22;25713;-35.352;149.036;2023-02-03T10:11:49;18.00;62.40
40023;DHT22;25713;-35.352;149.036;2023-02-03T10:14:33;17.90;60.90
40023;DHT22;25713;-35.352;149.036;2023-02-03T10:17:16;17.90;61.10
40023;DHT22;25713;-35.352;149.036;2023-02-03T10:19:54;17.90;61.40
40023;DHT22;25713;-35.352;149.036;2023-02-03T10:22:26;17.90;60.90
40023;DHT22;25713;-35.352;149.036;2023-02-03T10:24:58;17.90;61.10
40023;DHT22;25713;-35.352;149.036;2023-02-03T10:27:29;17.90;62.30
40023;DHT22;25713;-35.352;149.036;2023-02-03T10:30:03;17.90;61.50
40023;DHT22;25713;-35.352;149.036;2023-02-03T10:32:34;17.90;62.00
40023;DHT22;25713;-35.352;149.036;2023-02-03T10:35:11;17.90;62.60
40023;DHT22;25713;-35.352;149.036;2023-02-03T10:37:44;17.90;61.80
40023;DHT22;25713;-35.352;149.036;2023-02-03T10:40:15;17.90;62.30
40023;DHT22;25713;-35.352;149.036;2023-02-03T10:42:47;17.90;62.30
40023;DHT22;25713;-35.352;149.036;2023-02-03T10:45:17;17.80;61.70
40023;DHT22;25713;-35.352;149.036;2023-02-03T10:47:49;17.80;61.80
40023;DHT22;25713;-35.352;149.036;2023-02-03T10:50:24;17.80;60.00
40023;DHT22;25713;-35.352;149.036;2023-02-03T10:53:20;17.80;62.60
40023;DHT22;25713;-35.352;149.036;2023-02-03T10:55:58;17.70;60.10
40023;DHT22;25713;-35.352;149.036;2023-02-03T10:58:30;17.70;63.60
40023;DHT22;25713;-35.352;149.036;2023-02-03T11:01:08;17.70;63.20
40023;DHT22;25713;-35.352;149.036;2023-02-03T11:03:40;17.70;62.40
40023;DHT22;25713;-35.352;149.036;2023-02-03T11:06:12;17.70;63.40
40023;DHT22;25713;-35.352;149.036;2023-02-03T11:08:42;17.70;66.00
40023;DHT22;25713;-35.352;149.036;2023-02-03T11:11:19;17.50;63.80
40023;DHT22;25713;-35.352;149.036;2023-02-03T11:13:53;17.40;60.60
40023;DHT22;25713;-35.352;149.036;2023-02-03T11:16:23;17.10;64.30
40023;DHT22;25713;-35.352;149.036;2023-02-03T11:18:54;17.00;67.50
40023;DHT22;25713;-35.352;149.036;2023-02-03T11:21:30;17.00;64.20
40023;DHT22;25713;-35.352;149.036;2023-02-03T11:24:05;17.00;64.70
40023;DHT22;25713;-35.352;149.036;2023-02-03T11:26:40;17.10;65.30
40023;DHT22;25713;-35.352;149.036;2023-02-03T11:29:17;17.10;65.50
40023;DHT22;25713;-35.352;149.036;2023-02-03T11:31:48;17.20;64.90
40023;DHT22;25713;-35.352;149.036;2023-02-03T11:34:20;17.30;65.40
40023;DHT22;25713;-35.352;149.036;2023-02-03T11:36:54;17.40;65.60
40023;DHT22;25713;-35.352;149.036;2023-02-03T11:41:59;17.50;64.70
40023;DHT22;25713;-35.352;149.036;2023-02-03T11:44:29;17.50;64.20
40023;DHT22;25713;-35.352;149.036;2023-02-03T11:47:01;17.60;66.50
40023;DHT22;25713;-35.352;149.036;2023-02-03T11:49:54;17.60;64.90
40023;DHT22;25713;-35.352;149.036;2023-02-03T11:52:53;17.60;64.50
40023;DHT22;25713;-35.352;149.036;2023-02-03T11:55:37;17.70;65.00
40023;DHT22;25713;-35.352;149.036;2023-02-03T11:58:23;17.60;65.40
40023;DHT22;25713;-35.352;149.036;2023-02-03T12:01:05;17.70;65.10
40023;DHT22;25713;-35.352;149.036;2023-02-03T12:04:14;17.60;64.70
40023;DHT22;25713;-35.352;149.036;2023-02-03T12:07:05;17.70;63.40
40023;DHT22;25713;-35.352;149.036;2023-02-03T12:09:46;17.70;64.00
40023;DHT22;25713;-35.352;149.036;2023-02-03T12:12:36;17.60;64.40
40023;DHT22;25713;-35.352;149.036;2023-02-03T12:15:24;17.70;65.10
40023;DHT22;25713;-35.352;149.036;2023-02-03T12:18:14;17.70;64.80
40023;DHT22;25713;-35.352;149.036;2023-02-03T12:20:59;17.70;65.80
40023;DHT22;25713;-35.352;149.036;2023-02-03T12:23:41;17.70;65.90
40023;DHT22;25713;-35.352;149.036;2023-02-03T12:26:20;17.70;66.80
40023;DHT22;25713;-35.352;149.036;2023-02-03T12:28:58;17.70;67.90
40023;DHT22;25713;-35.352;149.036;2023-02-03T12:31:35;17.70;67.70
40023;DHT22;25713;-35.352;149.036;2023-02-03T12:34:17;17.70;68.40
40023;DHT22;25713;-35.352;149.036;2023-02-03T12:36:49;17.70;67.60
40023;DHT22;25713;-35.352;149.036;2023-02-03T12:39:26;17.70;66.10
40023;DHT22;25713;-35.352;149.036;2023-02-03T12:42:02;17.70;68.00
40023;DHT22;25713;-35.352;149.036;2023-02-03T12:44:38;17.70;69.10
40023;DHT22;25713;-35.352;149.036;2023-02-03T12:47:16;17.70;67.70
40023;DHT22;25713;-35.352;149.036;2023-02-03T12:49:53;17.70;68.60
40023;DHT22;25713;-35.352;149.036;2023-02-03T12:52:26;17.60;68.20
40023;DHT22;25713;-35.352;149.036;2023-02-03T12:55:07;17.70;68.70
40023;DHT22;25713;-35.352;149.036;2023-02-03T12:57:46;17.70;67.80
40023;DHT22;25713;-35.352;149.036;2023-02-03T13:00:26;17.60;66.00
40023;DHT22;25713;-35.352;149.036;2023-02-03T13:03:10;17.60;65.10
40023;DHT22;25713;-35.352;149.036;2023-02-03T13:05:48;17.60;66.00
40023;DHT22;25713;-35.352;149.036;2023-02-03T13:08:24;17.60;65.70
40023;DHT22;25713;-35.352;149.036;2023-02-03T13:11:02;17.40;65.20
40023;DHT22;25713;-35.352;149.036;2023-02-03T13:13:41;17.30;64.30
40023;DHT22;25713;-35.352;149.036;2023-02-03T13:16:14;17.30;67.70
40023;DHT22;25713;-35.352;149.036;2023-02-03T13:18:47;17.30;65.30
40023;DHT22;25713;-35.352;149.036;2023-02-03T13:21:18;17.30;65.70
40023;DHT22;25713;-35.352;149.036;2023-02-03T13:23:47;17.40;66.40
40023;DHT22;25713;-35.352;149.036;2023-02-03T13:29:56;17.30;66.90
40023;DHT22;25713;-35.352;149.036;2023-02-03T13:32:41;17.20;68.10
40023;DHT22;25713;-35.352;149.036;2023-02-03T13:35:25;17.20;68.70
40023;DHT22;25713;-35.352;149.036;2023-02-03T13:41:08;17.20;68.90
40023;DHT22;25713;-35.352;149.036;2023-02-03T13:43:42;17.10;68.10
40023;DHT22;25713;-35.352;149.036;2023-02-03T13:46:22;17.10;66.50
40023;DHT22;25713;-35.352;149.036;2023-02-03T13:48:53;17.20;66.50
40023;DHT22;25713;-35.352;149.036;2023-02-03T13:51:27;17.20;67.50
40023;DHT22;25713;-35.352;149.036;2023-02-03T13:54:01;17.10;66.30
40023;DHT22;25713;-35.352;149.036;2023-02-03T13:56:32;16.90;67.60
40023;DHT22;25713;-35.352;149.036;2023-02-03T13:59:11;16.80;68.40
40023;DHT22;25713;-35.352;149.036;2023-02-03T14:01:55;16.80;66.00
40023;DHT22;25713;-35.352;149.036;2023-02-03T14:04:55;16.70;66.50
40023;DHT22;25713;-35.352;149.036;2023-02-03T14:07:31;16.80;66.60
40023;DHT22;25713;-35.352;149.036;2023-02-03T14:10:20;16.80;67.00
40023;DHT22;25713;-35.352;149.036;2023-02-03T14:12:59;16.70;68.30
40023;DHT22;25713;-35.352;149.036;2023-02-03T14:15:37;16.90;67.30
40023;DHT22;25713;-35.352;149.036;2023-02-03T14:18:32;16.50;65.00
40023;DHT22;25713;-35.352;149.036;2023-02-03T14:21:19;16.30;65.50
40023;DHT22;25713;-35.352;149.036;2023-02-03T14:24:01;16.20;65.80
40023;DHT22;25713;-35.352;149.036;2023-02-03T14:26:37;16.30;67.30
40023;DHT22;25713;-35.352;149.036;2023-02-03T14:29:09;16.30;69.10
40023;DHT22;25713;-35.352;149.036;2023-02-03T14:31:56;16.40;69.20
40023;DHT22;25713;-35.352;149.036;2023-02-03T14:34:38;16.50;67.60
40023;DHT22;25713;-35.352;149.036;2023-02-03T14:37:28;16.30;68.20
40023;DHT22;25713;-35.352;149.036;2023-02-03T14:40:13;16.30;70.80
40023;DHT22;25713;-35.352;149.036;2023-02-03T14:43:07;16.30;71.00
40023;DHT22;25713;-35.352;149.036;2023-02-03T14:46:03;16.50;69.40
40023;DHT22;25713;-35.352;149.036;2023-02-03T15:52:41;16.70;74.50
40023;DHT22;25713;-35.352;149.036;2023-02-03T15:55:22;16.70;76.90
40023;DHT22;25713;-35.352;149.036;2023-02-03T15:57:54;16.80;76.80
40023;DHT22;25713;-35.352;149.036;2023-02-03T16:00:32;16.80;76.20
40023;DHT22;25713;-35.352;149.036;2023-02-03T16:03:04;16.80;74.10
40023;DHT22;25713;-35.352;149.036;2023-02-03T16:05:35;16.80;72.80
40023;DHT22;25713;-35.352;149.036;2023-02-03T16:08:32;16.90;72.70
40023;DHT22;25713;-35.352;149.036;2023-02-03T16:11:21;16.90;77.60
40023;DHT22;25713;-35.352;149.036;2023-02-03T16:13:51;16.90;73.00
40023;DHT22;25713;-35.352;149.036;2023-02-03T16:16:22;16.90;72.30
40023;DHT22;25713;-35.352;149.036;2023-02-03T16:18:54;16.90;76.30
40023;DHT22;25713;-35.352;149.036;2023-02-03T16:21:35;17.00;75.00
40023;DHT22;25713;-35.352;149.036;2023-02-03T16:24:31;16.90;70.40
40023;DHT22;25713;-35.352;149.036;2023-02-03T16:27:27;16.80;72.70
40023;DHT22;25713;-35.352;149.036;2023-02-03T16:33:03;16.90;72.90
40023;DHT22;25713;-35.352;149.036;2023-02-03T16:35:33;16.90;72.30
40023;DHT22;25713;-35.352;149.036;2023-02-03T16:38:06;16.90;72.70
40023;DHT22;25713;-35.352;149.036;2023-02-03T16:40:39;16.90;73.50
40023;DHT22;25713;-35.352;149.036;2023-02-03T16:43:12;16.90;72.50
40023;DHT22;25713;-35.352;149.036;2023-02-03T16:45:41;16.90;74.80
40023;DHT22;25713;-35.352;149.036;2023-02-03T16:48:11;16.90;73.90
40023;DHT22;25713;-35.352;149.036;2023-02-03T16:50:41;16.90;75.60
40023;DHT22;25713;-35.352;149.036;2023-02-03T16:53:14;16.90;77.90